sensor_id;sensor_type;location;lat;lon;timestamp;pressure;altitude;pressure_sealevel;temperature
9985;BMP180;16737;50.932;6.780;2022-09-17T00:01:15;99922.00;;;14.60
9985;BMP180;16737;50.932;6.780;2022-09-17T00:03:43;99921.00;;;14.60
9985;BMP180;16737;50.932;6.780;2022-09-17T00:06:12;99919.00;;;14.60
9985;BMP180;16737;50.932;6.780;2022-09-17T00:08:40;99919.00;;;14.60
9985;BMP180;16737;50.932;6.780;2022-09-17T00:11:09;99921.00;;;14.60
9985;BMP180;16737;50.932;6.780;2022-09-17T00:13:37;99912.00;;;14.60
9985;BMP180;16737;50.932;6.780;2022-09-17T00:16:05;99916.00;;;14.60
9985;BMP180;16737;50.932;6.780;2022-09-17T00:18:32;99916.00;;;14.60
9985;BMP180;16737;50.932;6.780;2022-09-17T00:21:02;99910.00;;;14.60
9985;BMP180;16737;50.932;6.780;2022-09-17T00:23:31;99914.00;;;14.60
9985;BMP180;16737;50.932;6.780;2022-09-17T00:25:58;99919.00;;;14.60
9985;BMP180;16737;50.932;6.780;2022-09-17T00:28:26;99911.00;;;14.60
9985;BMP180;16737;50.932;6.780;2022-09-17T00:30:53;99911.00;;;14.60
9985;BMP180;16737;50.932;6.780;2022-09-17T00:33:20;99908.00;;;14.60
9985;BMP180;16737;50.932;6.780;2022-09-17T00:35:57;99910.00;;;14.60
9985;BMP180;16737;50.932;6.780;2022-09-17T00:38:25;99912.00;;;14.70
9985;BMP180;16737;50.932;6.780;2022-09-17T00:40:53;99917.00;;;14.70
9985;BMP180;16737;50.932;6.780;2022-09-17T00:43:36;99920.00;;;14.70
9985;BMP180;16737;50.932;6.780;2022-09-17T00:46:07;99922.00;;;14.70
9985;BMP180;16737;50.932;6.780;2022-09-17T00:48:36;99921.00;;;14.70
9985;BMP180;16737;50.932;6.780;2022-09-17T00:51:06;99930.00;;;14.70
9985;BMP180;16737;50.932;6.780;2022-09-17T00:53:35;99924.00;;;14.70
9985;BMP180;16737;50.932;6.780;2022-09-17T00:56:08;99920.00;;;14.70
9985;BMP180;16737;50.932;6.780;2022-09-17T00:58:36;99914.00;;;14.70
9985;BMP180;16737;50.932;6.780;2022-09-17T01:01:05;99908.00;;;14.70
9985;BMP180;16737;50.932;6.780;2022-09-17T01:03:32;99908.00;;;14.70
9985;BMP180;16737;50.932;6.780;2022-09-17T01:06:06;99918.00;;;14.70
9985;BMP180;16737;50.932;6.780;2022-09-17T01:08:45;99910.00;;;14.60
9985;BMP180;16737;50.932;6.780;2022-09-17T01:11:34;99915.00;;;14.60
9985;BMP180;16737;50.932;6.780;2022-09-17T01:14:15;99919.00;;;14.60
9985;BMP180;16737;50.932;6.780;2022-09-17T01:16:50;99920.00;;;14.60
9985;BMP180;16737;50.932;6.780;2022-09-17T01:19:44;99923.00;;;14.60
9985;BMP180;16737;50.932;6.780;2022-09-17T01:22:19;99919.00;;;14.60
9985;BMP180;16737;50.932;6.780;2022-09-17T01:25:06;99918.00;;;14.50
9985;BMP180;16737;50.932;6.780;2022-09-17T01:28:02;99925.00;;;14.60
9985;BMP180;16737;50.932;6.780;2022-09-17T01:30:54;99929.00;;;14.60
9985;BMP180;16737;50.932;6.780;2022-09-17T01:33:27;99927.00;;;14.50
9985;BMP180;16737;50.932;6.780;2022-09-17T01:36:04;99929.00;;;14.50
9985;BMP180;16737;50.932;6.780;2022-09-17T01:38:36;99925.00;;;14.50
9985;BMP180;16737;50.932;6.780;2022-09-17T01:41:08;99932.00;;;14.50
9985;BMP180;16737;50.932;6.780;2022-09-17T01:43:44;99937.00;;;14.50
9985;BMP180;16737;50.932;6.780;2022-09-17T01:46:19;99934.00;;;14.50
9985;BMP180;16737;50.932;6.780;2022-09-17T01:48:50;99930.00;;;14.50
9985;BMP180;16737;50.932;6.780;2022-09-17T01:51:21;99939.00;;;14.60
9985;BMP180;16737;50.932;6.780;2022-09-17T01:53:56;99946.00;;;14.50
9985;BMP180;16737;50.932;6.780;2022-09-17T01:56:27;99943.00;;;14.50
9985;BMP180;16737;50.932;6.780;2022-09-17T01:58:59;99950.00;;;14.60
9985;BMP180;16737;50.932;6.780;2022-09-17T02:01:33;99951.00;;;14.60
9985;BMP180;16737;50.932;6.780;2022-09-17T02:04:06;99956.00;;;14.60
9985;BMP180;16737;50.932;6.780;2022-09-17T02:06:37;99948.00;;;14.60
9985;BMP180;16737;50.932;6.780;2022-09-17T02:09:12;99950.00;;;14.60
9985;BMP180;16737;50.932;6.780;2022-09-17T02:11:42;99954.00;;;14.60
9985;BMP180;16737;50.932;6.780;2022-09-17T02:14:13;99957.00;;;14.60
9985;BMP180;16737;50.932;6.780;2022-09-17T02:16:48;99954.00;;;14.50
9985;BMP180;16737;50.932;6.780;2022-09-17T02:19:20;99955.00;;;14.60
9985;BMP180;16737;50.932;6.780;2022-09-17T02:21:55;99959.00;;;14.60
9985;BMP180;16737;50.932;6.780;2022-09-17T02:24:28;99966.00;;;14.60
9985;BMP180;16737;50.932;6.780;2022-09-17T02:27:01;99959.00;;;14.60
9985;BMP180;16737;50.932;6.780;2022-09-17T02:29:33;99956.00;;;14.60
9985;BMP180;16737;50.932;6.780;2022-09-17T02:32:03;99968.00;;;14.70
9985;BMP180;16737;50.932;6.780;2022-09-17T02:34:31;99965.00;;;14.70
9985;BMP180;16737;50.932;6.780;2022-09-17T02:37:00;99963.00;;;14.70
9985;BMP180;16737;50.932;6.780;2022-09-17T02:39:28;99955.00;;;14.70
9985;BMP180;16737;50.932;6.780;2022-09-17T02:42:02;99966.00;;;14.70
9985;BMP180;16737;50.932;6.780;2022-09-17T02:44:36;99963.00;;;14.70
9985;BMP180;16737;50.932;6.780;2022-09-17T02:47:30;99959.00;;;14.70
9985;BMP180;16737;50.932;6.780;2022-09-17T02:50:14;99973.00;;;14.70
9985;BMP180;16737;50.932;6.780;2022-09-17T02:52:53;99966.00;;;14.70
9985;BMP180;16737;50.932;6.780;2022-09-17T02:55:25;99963.00;;;14.70
9985;BMP180;16737;50.932;6.780;2022-09-17T02:58:02;99963.00;;;14.70
9985;BMP180;16737;50.932;6.780;2022-09-17T03:00:32;99956.00;;;14.80
9985;BMP180;16737;50.932;6.780;2022-09-17T03:03:06;99958.00;;;14.70
9985;BMP180;16737;50.932;6.780;2022-09-17T03:05:38;99964.00;;;14.80
9985;BMP180;16737;50.932;6.780;2022-09-17T03:08:08;99964.00;;;14.80
9985;BMP180;16737;50.932;6.780;2022-09-17T03:10:39;99955.00;;;14.80
9985;BMP180;16737;50.932;6.780;2022-09-17T03:13:06;99967.00;;;14.80
9985;BMP180;16737;50.932;6.780;2022-09-17T03:15:34;99967.00;;;14.90
9985;BMP180;16737;50.932;6.780;2022-09-17T03:18:02;99968.00;;;14.90
9985;BMP180;16737;50.932;6.780;2022-09-17T03:20:30;99978.00;;;14.90
9985;BMP180;16737;50.932;6.780;2022-09-17T03:22:57;99963.00;;;14.90
9985;BMP180;16737;50.932;6.780;2022-09-17T03:25:25;99973.00;;;14.90
9985;BMP180;16737;50.932;6.780;2022-09-17T03:27:52;99968.00;;;14.90
9985;BMP180;16737;50.932;6.780;2022-09-17T03:30:19;99974.00;;;14.90
9985;BMP180;16737;50.932;6.780;2022-09-17T03:32:47;99976.00;;;14.90
9985;BMP180;16737;50.932;6.780;2022-09-17T03:35:15;99976.00;;;14.90
9985;BMP180;16737;50.932;6.780;2022-09-17T03:37:43;99974.00;;;14.90
9985;BMP180;16737;50.932;6.780;2022-09-17T03:40:12;99973.00;;;14.90
9985;BMP180;16737;50.932;6.780;2022-09-17T03:42:40;99971.00;;;14.90
9985;BMP180;16737;50.932;6.780;2022-09-17T03:45:08;99973.00;;;14.90
9985;BMP180;16737;50.932;6.780;2022-09-17T03:47:36;99976.00;;;14.90
9985;BMP180;16737;50.932;6.780;2022-09-17T03:50:04;99979.00;;;14.90
9985;BMP180;16737;50.932;6.780;2022-09-17T03:52:33;99986.00;;;14.90
9985;BMP180;16737;50.932;6.780;2022-09-17T03:55:00;99986.00;;;14.90
9985;BMP180;16737;50.932;6.780;2022-09-17T03:57:28;99969.00;;;14.90
9985;BMP180;16737;50.932;6.780;2022-09-17T03:59:55;99968.00;;;14.90
9985;BMP180;16737;50.932;6.780;2022-09-17T04:02:22;99981.00;;;14.90
9985;BMP180;16737;50.932;6.780;2022-09-17T04:04:50;99984.00;;;15.00
9985;BMP180;16737;50.932;6.780;2022-09-17T04:07:18;99980.00;;;14.90
9985;BMP180;16737;50.932;6.780;2022-09-17T04:09:46;99987.00;;;15.00
9985;BMP180;16737;50.932;6.780;2022-09-17T04:12:17;99989.00;;;14.90
9985;BMP180;16737;50.932;6.780;2022-09-17T04:14:44;99984.00;;;14.90
9985;BMP180;16737;50.932;6.780;2022-09-17T04:17:11;99978.00;;;14.90
9985;BMP180;16737;50.932;6.780;2022-09-17T04:19:43;99990.00;;;14.90
9985;BMP180;16737;50.932;6.780;2022-09-17T04:22:10;99987.00;;;14.90
9985;BMP180;16737;50.932;6.780;2022-09-17T04:24:37;99990.00;;;14.90
9985;BMP180;16737;50.932;6.780;2022-09-17T04:27:06;99991.00;;;14.90
9985;BMP180;16737;50.932;6.780;2022-09-17T04:29:33;99991.00;;;14.90
9985;BMP180;16737;50.932;6.780;2022-09-17T04:32:01;99992.00;;;14.90
9985;BMP180;16737;50.932;6.780;2022-09-17T04:34:28;100000.00;;;14.80
9985;BMP180;16737;50.932;6.780;2022-09-17T04:36:56;99999.00;;;14.80
9985;BMP180;16737;50.932;6.780;2022-09-17T04:39:24;99996.00;;;14.80
9985;BMP180;16737;50.932;6.780;2022-09-17T04:41:51;99997.00;;;14.80
9985;BMP180;16737;50.932;6.780;2022-09-17T04:44:21;100002.00;;;14.80
9985;BMP180;16737;50.932;6.780;2022-09-17T04:46:48;100005.00;;;14.80
9985;BMP180;16737;50.932;6.780;2022-09-17T04:49:16;99996.00;;;14.80
9985;BMP180;16737;50.932;6.780;2022-09-17T04:51:43;100005.00;;;14.80
9985;BMP180;16737;50.932;6.780;2022-09-17T04:54:10;100005.00;;;14.80
9985;BMP180;16737;50.932;6.780;2022-09-17T04:56:37;100011.00;;;14.80
9985;BMP180;16737;50.932;6.780;2022-09-17T04:59:05;100010.00;;;14.80
9985;BMP180;16737;50.932;6.780;2022-09-17T05:01:33;100007.00;;;14.70
9985;BMP180;16737;50.932;6.780;2022-09-17T05:04:02;100017.00;;;14.70
9985;BMP180;16737;50.932;6.780;2022-09-17T05:06:29;100017.00;;;14.70
9985;BMP180;16737;50.932;6.780;2022-09-17T05:08:57;100010.00;;;14.80
9985;BMP180;16737;50.932;6.780;2022-09-17T05:11:24;100015.00;;;14.80
9985;BMP180;16737;50.932;6.780;2022-09-17T05:13:54;100020.00;;;14.80
9985;BMP180;16737;50.932;6.780;2022-09-17T05:16:22;100021.00;;;14.80
9985;BMP180;16737;50.932;6.780;2022-09-17T05:18:50;100023.00;;;14.80
9985;BMP180;16737;50.932;6.780;2022-09-17T05:21:19;100025.00;;;14.80
9985;BMP180;16737;50.932;6.780;2022-09-17T05:23:46;100030.00;;;14.90
9985;BMP180;16737;50.932;6.780;2022-09-17T05:26:14;100020.00;;;14.90
9985;BMP180;16737;50.932;6.780;2022-09-17T05:28:42;100020.00;;;14.90
9985;BMP180;16737;50.932;6.780;2022-09-17T05:31:09;100024.00;;;14.90
9985;BMP180;16737;50.932;6.780;2022-09-17T05:33:36;100017.00;;;14.90
9985;BMP180;16737;50.932;6.780;2022-09-17T05:36:05;100016.00;;;15.00
9985;BMP180;16737;50.932;6.780;2022-09-17T05:38:33;100023.00;;;15.00
9985;BMP180;16737;50.932;6.780;2022-09-17T05:41:03;100026.00;;;15.00
9985;BMP180;16737;50.932;6.780;2022-09-17T05:43:31;100030.00;;;15.00
9985;BMP180;16737;50.932;6.780;2022-09-17T05:46:01;100025.00;;;15.00
9985;BMP180;16737;50.932;6.780;2022-09-17T05:48:28;100033.00;;;15.00
9985;BMP180;16737;50.932;6.780;2022-09-17T05:50:56;100048.00;;;15.00
9985;BMP180;16737;50.932;6.780;2022-09-17T05:53:25;100042.00;;;15.00
9985;BMP180;16737;50.932;6.780;2022-09-17T05:55:55;100045.00;;;15.00
9985;BMP180;16737;50.932;6.780;2022-09-17T05:58:23;100046.00;;;15.00
9985;BMP180;16737;50.932;6.780;2022-09-17T06:00:51;100060.00;;;15.00
9985;BMP180;16737;50.932;6.780;2022-09-17T06:03:20;100056.00;;;15.10
9985;BMP180;16737;50.932;6.780;2022-09-17T06:05:53;100057.00;;;15.10
9985;BMP180;16737;50.932;6.780;2022-09-17T06:08:21;100068.00;;;15.10
9985;BMP180;16737;50.932;6.780;2022-09-17T06:10:50;100062.00;;;15.20
9985;BMP180;16737;50.932;6.780;2022-09-17T06:13:18;100059.00;;;15.20
9985;BMP180;16737;50.932;6.780;2022-09-17T06:15:49;100058.00;;;15.20
9985;BMP180;16737;50.932;6.780;2022-09-17T06:18:17;100065.00;;;15.30
9985;BMP180;16737;50.932;6.780;2022-09-17T06:20:52;100059.00;;;15.30
9985;BMP180;16737;50.932;6.780;2022-09-17T06:23:21;100059.00;;;15.40
9985;BMP180;16737;50.932;6.780;2022-09-17T06:25:55;100063.00;;;15.40
9985;BMP180;16737;50.932;6.780;2022-09-17T06:28:23;100066.00;;;15.40
9985;BMP180;16737;50.932;6.780;2022-09-17T06:30:50;100064.00;;;15.50
9985;BMP180;16737;50.932;6.780;2022-09-17T06:33:19;100068.00;;;15.50
9985;BMP180;16737;50.932;6.780;2022-09-17T06:35:47;100067.00;;;15.60
9985;BMP180;16737;50.932;6.780;2022-09-17T06:38:14;100070.00;;;15.60
9985;BMP180;16737;50.932;6.780;2022-09-17T06:40:42;100068.00;;;15.60
9985;BMP180;16737;50.932;6.780;2022-09-17T06:43:13;100073.00;;;15.70
9985;BMP180;16737;50.932;6.780;2022-09-17T06:45:41;100086.00;;;15.70
9985;BMP180;16737;50.932;6.780;2022-09-17T06:48:08;100085.00;;;15.70
9985;BMP180;16737;50.932;6.780;2022-09-17T06:50:36;100088.00;;;15.70
9985;BMP180;16737;50.932;6.780;2022-09-17T06:53:03;100091.00;;;15.70
9985;BMP180;16737;50.932;6.780;2022-09-17T06:55:30;100093.00;;;15.70
9985;BMP180;16737;50.932;6.780;2022-09-17T06:57:58;100095.00;;;15.70
9985;BMP180;16737;50.932;6.780;2022-09-17T07:00:27;100095.00;;;15.70
9985;BMP180;16737;50.932;6.780;2022-09-17T07:02:55;100099.00;;;15.70
9985;BMP180;16737;50.932;6.780;2022-09-17T07:05:23;100097.00;;;15.70
9985;BMP180;16737;50.932;6.780;2022-09-17T07:07:51;100099.00;;;15.70
9985;BMP180;16737;50.932;6.780;2022-09-17T07:10:19;100108.00;;;15.70
9985;BMP180;16737;50.932;6.780;2022-09-17T07:12:48;100097.00;;;15.70
9985;BMP180;16737;50.932;6.780;2022-09-17T07:15:15;100099.00;;;15.70
9985;BMP180;16737;50.932;6.780;2022-09-17T07:17:44;100102.00;;;15.70
9985;BMP180;16737;50.932;6.780;2022-09-17T07:20:12;100107.00;;;15.70
9985;BMP180;16737;50.932;6.780;2022-09-17T07:22:39;100100.00;;;15.70
9985;BMP180;16737;50.932;6.780;2022-09-17T07:25:08;100108.00;;;15.70
9985;BMP180;16737;50.932;6.780;2022-09-17T07:27:36;100113.00;;;15.80
9985;BMP180;16737;50.932;6.780;2022-09-17T07:30:04;100106.00;;;15.80
9985;BMP180;16737;50.932;6.780;2022-09-17T07:32:34;100114.00;;;15.80
9985;BMP180;16737;50.932;6.780;2022-09-17T07:35:04;100105.00;;;15.80
9985;BMP180;16737;50.932;6.780;2022-09-17T07:37:31;100113.00;;;15.90
9985;BMP180;16737;50.932;6.780;2022-09-17T07:39:58;100106.00;;;15.90
9985;BMP180;16737;50.932;6.780;2022-09-17T07:42:26;100106.00;;;16.00
9985;BMP180;16737;50.932;6.780;2022-09-17T07:44:53;100101.00;;;16.00
9985;BMP180;16737;50.932;6.780;2022-09-17T07:47:20;100103.00;;;16.10
9985;BMP180;16737;50.932;6.780;2022-09-17T07:49:48;100108.00;;;16.20
9985;BMP180;16737;50.932;6.780;2022-09-17T07:52:17;100108.00;;;16.20
9985;BMP180;16737;50.932;6.780;2022-09-17T07:54:44;100123.00;;;16.30
9985;BMP180;16737;50.932;6.780;2022-09-17T07:57:11;100112.00;;;16.40
9985;BMP180;16737;50.932;6.780;2022-09-17T07:59:38;100107.00;;;16.40
9985;BMP180;16737;50.932;6.780;2022-09-17T08:02:10;100114.00;;;16.50
9985;BMP180;16737;50.932;6.780;2022-09-17T08:04:40;100108.00;;;16.50
9985;BMP180;16737;50.932;6.780;2022-09-17T08:07:10;100116.00;;;16.60
9985;BMP180;16737;50.932;6.780;2022-09-17T08:09:40;100116.00;;;16.60
9985;BMP180;16737;50.932;6.780;2022-09-17T08:12:07;100118.00;;;16.70
9985;BMP180;16737;50.932;6.780;2022-09-17T08:14:35;100130.00;;;16.80
9985;BMP180;16737;50.932;6.780;2022-09-17T08:17:02;100119.00;;;16.80
9985;BMP180;16737;50.932;6.780;2022-09-17T08:19:32;100124.00;;;16.90
9985;BMP180;16737;50.932;6.780;2022-09-17T08:22:00;100120.00;;;16.90
9985;BMP180;16737;50.932;6.780;2022-09-17T08:24:27;100116.00;;;16.90
9985;BMP180;16737;50.932;6.780;2022-09-17T08:26:56;100122.00;;;17.00
9985;BMP180;16737;50.932;6.780;2022-09-17T08:29:23;100121.00;;;17.00
9985;BMP180;16737;50.932;6.780;2022-09-17T08:31:50;100124.00;;;17.00
9985;BMP180;16737;50.932;6.780;2022-09-17T08:34:18;100126.00;;;17.10
9985;BMP180;16737;50.932;6.780;2022-09-17T08:36:45;100125.00;;;17.10
9985;BMP180;16737;50.932;6.780;2022-09-17T08:39:13;100132.00;;;17.20
9985;BMP180;16737;50.932;6.780;2022-09-17T08:41:53;100136.00;;;17.20
9985;BMP180;16737;50.932;6.780;2022-09-17T08:44:25;100134.00;;;17.20
9985;BMP180;16737;50.932;6.780;2022-09-17T08:46:58;100134.00;;;17.30
9985;BMP180;16737;50.932;6.780;2022-09-17T08:49:32;100135.00;;;17.40
9985;BMP180;16737;50.932;6.780;2022-09-17T08:52:17;100147.00;;;17.50
9985;BMP180;16737;50.932;6.780;2022-09-17T08:54:54;100138.00;;;17.60
9985;BMP180;16737;50.932;6.780;2022-09-17T08:57:28;100139.00;;;17.70
9985;BMP180;16737;50.932;6.780;2022-09-17T09:00:03;100141.00;;;17.80
9985;BMP180;16737;50.932;6.780;2022-09-17T09:02:44;100137.00;;;17.80
9985;BMP180;16737;50.932;6.780;2022-09-17T09:05:18;100135.00;;;17.80
9985;BMP180;16737;50.932;6.780;2022-09-17T09:07:50;100125.00;;;17.90
9985;BMP180;16737;50.932;6.780;2022-09-17T09:10:20;100128.00;;;17.90
9985;BMP180;16737;50.932;6.780;2022-09-17T09:12:51;100131.00;;;17.90
9985;BMP180;16737;50.932;6.780;2022-09-17T09:15:29;100132.00;;;17.90
9985;BMP180;16737;50.932;6.780;2022-09-17T09:18:00;100131.00;;;18.00
9985;BMP180;16737;50.932;6.780;2022-09-17T09:20:34;100128.00;;;18.00
9985;BMP180;16737;50.932;6.780;2022-09-17T09:23:12;100126.00;;;18.00
9985;BMP180;16737;50.932;6.780;2022-09-17T09:25:52;100130.00;;;18.10
9985;BMP180;16737;50.932;6.780;2022-09-17T09:28:39;100133.00;;;18.10
9985;BMP180;16737;50.932;6.780;2022-09-17T09:31:25;100141.00;;;18.10
9985;BMP180;16737;50.932;6.780;2022-09-17T09:33:55;100132.00;;;18.20
9985;BMP180;16737;50.932;6.780;2022-09-17T09:36:27;100137.00;;;18.30
9985;BMP180;16737;50.932;6.780;2022-09-17T09:39:00;100148.00;;;18.30
9985;BMP180;16737;50.932;6.780;2022-09-17T09:41:31;100148.00;;;18.30
9985;BMP180;16737;50.932;6.780;2022-09-17T09:44:03;100133.00;;;18.40
9985;BMP180;16737;50.932;6.780;2022-09-17T09:46:50;100135.00;;;18.40
9985;BMP180;16737;50.932;6.780;2022-09-17T09:49:30;100137.00;;;18.50
9985;BMP180;16737;50.932;6.780;2022-09-17T09:52:09;100131.00;;;18.60
9985;BMP180;16737;50.932;6.780;2022-09-17T09:54:53;100136.00;;;18.60
9985;BMP180;16737;50.932;6.780;2022-09-17T09:57:33;100137.00;;;18.60
9985;BMP180;16737;50.932;6.780;2022-09-17T10:00:25;100138.00;;;18.70
9985;BMP180;16737;50.932;6.780;2022-09-17T10:02:58;100143.00;;;18.70
9985;BMP180;16737;50.932;6.780;2022-09-17T10:05:28;100131.00;;;18.70
9985;BMP180;16737;50.932;6.780;2022-09-17T10:07:55;100125.00;;;18.70
9985;BMP180;16737;50.932;6.780;2022-09-17T10:10:22;100138.00;;;18.80
9985;BMP180;16737;50.932;6.780;2022-09-17T10:13:05;100135.00;;;18.80
9985;BMP180;16737;50.932;6.780;2022-09-17T10:15:32;100131.00;;;18.90
9985;BMP180;16737;50.932;6.780;2022-09-17T10:18:16;100116.00;;;19.00
9985;BMP180;16737;50.932;6.780;2022-09-17T10:20:58;100125.00;;;19.00
9985;BMP180;16737;50.932;6.780;2022-09-17T10:23:27;100132.00;;;19.10
9985;BMP180;16737;50.932;6.780;2022-09-17T10:25:56;100130.00;;;19.10
9985;BMP180;16737;50.932;6.780;2022-09-17T10:28:34;100128.00;;;19.10
9985;BMP180;16737;50.932;6.780;2022-09-17T10:31:04;100122.00;;;19.10
9985;BMP180;16737;50.932;6.780;2022-09-17T10:33:38;100124.00;;;19.10
9985;BMP180;16737;50.932;6.780;2022-09-17T10:36:07;100110.00;;;19.00
9985;BMP180;16737;50.932;6.780;2022-09-17T10:38:39;100103.00;;;19.10
9985;BMP180;16737;50.932;6.780;2022-09-17T10:41:15;100111.00;;;19.20
9985;BMP180;16737;50.932;6.780;2022-09-17T10:43:43;100105.00;;;19.30
9985;BMP180;16737;50.932;6.780;2022-09-17T10:46:14;100107.00;;;19.30
9985;BMP180;16737;50.932;6.780;2022-09-17T10:48:50;100124.00;;;19.30
9985;BMP180;16737;50.932;6.780;2022-09-17T10:51:22;100112.00;;;19.20
9985;BMP180;16737;50.932;6.780;2022-09-17T10:54:16;100103.00;;;19.10
9985;BMP180;16737;50.932;6.780;2022-09-17T10:56:51;100101.00;;;19.10
9985;BMP180;16737;50.932;6.780;2022-09-17T10:59:35;100095.00;;;19.10
9985;BMP180;16737;50.932;6.780;2022-09-17T11:02:22;100099.00;;;19.20
9985;BMP180;16737;50.932;6.780;2022-09-17T11:04:58;100098.00;;;19.20
9985;BMP180;16737;50.932;6.780;2022-09-17T11:07:42;100094.00;;;19.30
9985;BMP180;16737;50.932;6.780;2022-09-17T11:10:20;100093.00;;;19.40
9985;BMP180;16737;50.932;6.780;2022-09-17T11:13:03;100096.00;;;19.50
9985;BMP180;16737;50.932;6.780;2022-09-17T11:15:43;100096.00;;;19.60
9985;BMP180;16737;50.932;6.780;2022-09-17T11:18:35;100101.00;;;19.70
9985;BMP180;16737;50.932;6.780;2022-09-17T11:21:42;100095.00;;;19.70
9985;BMP180;16737;50.932;6.780;2022-09-17T11:24:31;100104.00;;;19.80
9985;BMP180;16737;50.932;6.780;2022-09-17T11:27:09;100097.00;;;19.90
9985;BMP180;16737;50.932;6.780;2022-09-17T11:29:55;100099.00;;;20.00
9985;BMP180;16737;50.932;6.780;2022-09-17T11:33:05;100121.00;;;19.90
9985;BMP180;16737;50.932;6.780;2022-09-17T11:35:37;100143.00;;;19.80
9985;BMP180;16737;50.932;6.780;2022-09-17T11:38:13;100148.00;;;19.50
9985;BMP180;16737;50.932;6.780;2022-09-17T11:40:45;100149.00;;;19.10
9985;BMP180;16737;50.932;6.780;2022-09-17T11:43:21;100147.00;;;18.80
9985;BMP180;16737;50.932;6.780;2022-09-17T11:45:58;100131.00;;;18.50
9985;BMP180;16737;50.932;6.780;2022-09-17T11:48:34;100123.00;;;18.30
9985;BMP180;16737;50.932;6.780;2022-09-17T11:51:11;100115.00;;;18.00
9985;BMP180;16737;50.932;6.780;2022-09-17T11:53:45;100108.00;;;17.90
9985;BMP180;16737;50.932;6.780;2022-09-17T11:56:18;100104.00;;;17.80
9985;BMP180;16737;50.932;6.780;2022-09-17T11:58:50;100106.00;;;17.80
9985;BMP180;16737;50.932;6.780;2022-09-17T12:01:26;100103.00;;;17.80
9985;BMP180;16737;50.932;6.780;2022-09-17T12:03:59;100085.00;;;17.90
9985;BMP180;16737;50.932;6.780;2022-09-17T12:06:35;100100.00;;;17.90
9985;BMP180;16737;50.932;6.780;2022-09-17T12:09:11;100108.00;;;18.00
9985;BMP180;16737;50.932;6.780;2022-09-17T12:11:44;100105.00;;;18.10
9985;BMP180;16737;50.932;6.780;2022-09-17T12:14:16;100094.00;;;18.20
9985;BMP180;16737;50.932;6.780;2022-09-17T12:16:49;100102.00;;;18.30
9985;BMP180;16737;50.932;6.780;2022-09-17T12:19:23;100093.00;;;18.40
9985;BMP180;16737;50.932;6.780;2022-09-17T12:21:55;100098.00;;;18.50
9985;BMP180;16737;50.932;6.780;2022-09-17T12:24:26;100098.00;;;18.60
9985;BMP180;16737;50.932;6.780;2022-09-17T12:27:06;100085.00;;;18.70
9985;BMP180;16737;50.932;6.780;2022-09-17T12:29:58;100088.00;;;18.80
9985;BMP180;16737;50.932;6.780;2022-09-17T12:32:44;100088.00;;;18.80
9985;BMP180;16737;50.932;6.780;2022-09-17T12:35:28;100086.00;;;18.90
9985;BMP180;16737;50.932;6.780;2022-09-17T12:38:10;100089.00;;;19.00
9985;BMP180;16737;50.932;6.780;2022-09-17T12:40:46;100075.00;;;19.10
9985;BMP180;16737;50.932;6.780;2022-09-17T12:43:39;100082.00;;;19.20
9985;BMP180;16737;50.932;6.780;2022-09-17T12:46:21;100039.00;;;19.30
9985;BMP180;16737;50.932;6.780;2022-09-17T12:49:23;100078.00;;;19.30
9985;BMP180;16737;50.932;6.780;2022-09-17T12:51:54;100079.00;;;19.40
9985;BMP180;16737;50.932;6.780;2022-09-17T12:54:41;100073.00;;;19.50
9985;BMP180;16737;50.932;6.780;2022-09-17T12:57:21;100070.00;;;19.50
9985;BMP180;16737;50.932;6.780;2022-09-17T12:59:52;100069.00;;;19.50
9985;BMP180;16737;50.932;6.780;2022-09-17T13:02:27;100059.00;;;19.50
9985;BMP180;16737;50.932;6.780;2022-09-17T13:05:26;100047.00;;;19.60
9985;BMP180;16737;50.932;6.780;2022-09-17T13:08:17;100041.00;;;19.70
9985;BMP180;16737;50.932;6.780;2022-09-17T13:11:05;100044.00;;;19.80
9985;BMP180;16737;50.932;6.780;2022-09-17T13:13:46;100045.00;;;19.90
9985;BMP180;16737;50.932;6.780;2022-09-17T13:16:20;100044.00;;;19.90
9985;BMP180;16737;50.932;6.780;2022-09-17T13:18:53;100058.00;;;20.00
9985;BMP180;16737;50.932;6.780;2022-09-17T13:21:24;100047.00;;;20.00
9985;BMP180;16737;50.932;6.780;2022-09-17T13:23:56;100052.00;;;20.10
9985;BMP180;16737;50.932;6.780;2022-09-17T13:26:34;100051.00;;;20.10
9985;BMP180;16737;50.932;6.780;2022-09-17T13:29:03;100046.00;;;20.20
9985;BMP180;16737;50.932;6.780;2022-09-17T13:31:47;100049.00;;;20.20
9985;BMP180;16737;50.932;6.780;2022-09-17T13:34:29;100064.00;;;20.30
9985;BMP180;16737;50.932;6.780;2022-09-17T13:36:59;100060.00;;;20.40
9985;BMP180;16737;50.932;6.780;2022-09-17T13:39:39;100061.00;;;20.40
9985;BMP180;16737;50.932;6.780;2022-09-17T13:42:12;100076.00;;;20.40
9985;BMP180;16737;50.932;6.780;2022-09-17T13:44:44;100078.00;;;20.40
9985;BMP180;16737;50.932;6.780;2022-09-17T13:47:17;100082.00;;;20.30
9985;BMP180;16737;50.932;6.780;2022-09-17T13:49:49;100077.00;;;20.30
9985;BMP180;16737;50.932;6.780;2022-09-17T13:52:39;100068.00;;;20.10
9985;BMP180;16737;50.932;6.780;2022-09-17T13:55:07;100062.00;;;20.10
9985;BMP180;16737;50.932;6.780;2022-09-17T13:57:47;100069.00;;;20.00
9985;BMP180;16737;50.932;6.780;2022-09-17T14:00:52;100063.00;;;19.90
9985;BMP180;16737;50.932;6.780;2022-09-17T14:03:53;100065.00;;;19.90
9985;BMP180;16737;50.932;6.780;2022-09-17T14:06:48;100059.00;;;19.90
9985;BMP180;16737;50.932;6.780;2022-09-17T14:09:46;100043.00;;;19.80
9985;BMP180;16737;50.932;6.780;2022-09-17T14:12:51;100048.00;;;19.80
9985;BMP180;16737;50.932;6.780;2022-09-17T14:15:36;100055.00;;;19.80
9985;BMP180;16737;50.932;6.780;2022-09-17T14:18:56;100048.00;;;19.90
9985;BMP180;16737;50.932;6.780;2022-09-17T14:21:29;100053.00;;;19.80
9985;BMP180;16737;50.932;6.780;2022-09-17T14:23:59;100061.00;;;20.00
9985;BMP180;16737;50.932;6.780;2022-09-17T14:26:46;100051.00;;;20.10
9985;BMP180;16737;50.932;6.780;2022-09-17T14:29:23;100058.00;;;20.10
9985;BMP180;16737;50.932;6.780;2022-09-17T14:31:55;100077.00;;;20.10
9985;BMP180;16737;50.932;6.780;2022-09-17T14:34:26;100074.00;;;20.10
9985;BMP180;16737;50.932;6.780;2022-09-17T14:36:55;100082.00;;;20.00
9985;BMP180;16737;50.932;6.780;2022-09-17T14:39:24;100085.00;;;20.00
9985;BMP180;16737;50.932;6.780;2022-09-17T14:41:54;100078.00;;;19.90
9985;BMP180;16737;50.932;6.780;2022-09-17T14:44:23;100085.00;;;19.80
9985;BMP180;16737;50.932;6.780;2022-09-17T14:46:55;100082.00;;;19.70
9985;BMP180;16737;50.932;6.780;2022-09-17T14:49:32;100083.00;;;19.70